This is the latest recevied weather packets stored in our database for station/object VK4JLM-1. If no packets are shown the sender has not sent any weather packets the latest 10 day(s).
| Time | Temp. | Humidity | Pressure | Rain* | Wind** | Luminosity | Snow |
|---|---|---|---|---|---|---|---|
| 1777535931 | 18.33° C | 92% | 1027.3 hPa | 0 mm | - | - | - |
| 1777534851 | 18.33° C | 93% | 1027.2 hPa | 0 mm | - | - | - |
| 1777533696 | 18.33° C | 92% | 1027.1 hPa | 0 mm | - | - | - |
| 1777532501 | 19.44° C | 89% | 1026.9 hPa | 0 mm | - | - | - |
| 1777531431 | 19.44° C | 89% | 1027.1 hPa | 0.25 mm | - | - | - |
| 1777530401 | 19.44° C | 90% | 1027.1 hPa | 0.25 mm | - | - | - |
| 1777529341 | 20° C | 89% | 1027.1 hPa | 0.25 mm | - | - | - |
| 1777528176 | 21.11° C | 83% | 1027.1 hPa | 0 mm | - | - | - |
| 1777527140 | 21.67° C | 82% | 1026.8 hPa | 3.05 mm | - | - | - |
| 1777524851 | 20.56° C | 86% | 1026.7 hPa | 3.05 mm | - | - | - |
| 1777523741 | 20.56° C | 86% | 1026.7 hPa | 2.54 mm | - | - | - |
| 1777521521 | 26.11° C | 67% | 1026.4 hPa | 0 mm | - | - | - |
| 1777520471 | 25° C | 68% | 1026.6 hPa | 0 mm | - | - | - |
| 1777519381 | 26.11° C | 66% | 1026.7 hPa | 0 mm | - | - | - |
| 1777518206 | 25.56° C | 66% | 1027 hPa | 0 mm | - | - | - |
| 1777517061 | 24.44° C | 68% | 1027.4 hPa | 0 mm | - | - | - |
| 1777516051 | 26.11° C | 65% | 1027.3 hPa | 0 mm | - | - | - |
| 1777515066 | 30.56° C | 55% | 1027.4 hPa | 0.25 mm | - | - | - |
| 1777512851 | 27.78° C | 63% | 1028.1 hPa | 1.27 mm | - | - | - |
| 1777511816 | 27.78° C | 61% | 1028.6 hPa | 1.27 mm | - | - | - |
| 1777510766 | 21.11° C | 83% | 1029.2 hPa | 0.51 mm | - | - | - |
| 1777509791 | 27.22° C | 62% | 1028.8 hPa | 0.51 mm | - | - | - |
| 1777508781 | 25.56° C | 68% | 1029.2 hPa | 0 mm | - | - | - |
| 1777506626 | 26.67° C | 61% | 1029.4 hPa | 0 mm | - | - | - |
| 1777505641 | 25.56° C | 66% | 1029.2 hPa | 0 mm | - | - | - |
* Rain latest hour (hover to see other rain measurements)
** Current wind speed in m/s (hover to see current wind gust speed)